createdAt,value
2023-01-12T00:02:21.353Z,9.47
2023-01-12T00:04:49.951Z,8.60
2023-01-12T00:07:20.284Z,8.53
2023-01-12T00:09:49.068Z,8.87
2023-01-12T00:12:17.652Z,10.60
2023-01-12T00:14:46.053Z,11.00
2023-01-12T00:17:17.260Z,10.63
2023-01-12T00:19:47.211Z,9.80
2023-01-12T00:22:17.720Z,8.57
2023-01-12T00:24:48.013Z,8.53
2023-01-12T00:27:17.284Z,8.13
2023-01-12T00:29:45.999Z,7.50
2023-01-12T00:32:15.463Z,7.50
2023-01-12T00:34:43.900Z,7.30
2023-01-12T00:37:13.814Z,9.33
2023-01-12T00:39:45.862Z,8.47
2023-01-12T00:42:34.828Z,9.50
2023-01-12T00:45:20.915Z,9.13
2023-01-12T00:47:49.383Z,8.93
2023-01-12T00:50:19.491Z,8.30
2023-01-12T00:52:49.619Z,8.70
2023-01-12T00:55:18.289Z,8.13
2023-01-12T00:57:46.872Z,8.07
2023-01-12T01:00:15.842Z,7.73
2023-01-12T01:02:44.393Z,8.03
2023-01-12T01:05:12.970Z,7.70
2023-01-12T01:07:41.373Z,7.90
2023-01-12T01:10:11.976Z,7.60
2023-01-12T01:12:40.366Z,7.80
2023-01-12T01:15:09.268Z,8.17
2023-01-12T01:17:37.733Z,7.90
2023-01-12T01:20:06.589Z,8.27
2023-01-12T01:22:34.984Z,7.53
2023-01-12T01:25:03.357Z,6.97
2023-01-12T01:27:33.209Z,7.47
2023-01-12T01:30:01.606Z,6.10
2023-01-12T01:32:30.137Z,7.27
2023-01-12T01:34:58.588Z,6.60
2023-01-12T01:37:27.043Z,6.83
2023-01-12T01:39:56.282Z,8.20
2023-01-12T01:42:31.930Z,6.80
2023-01-12T01:45:02.516Z,7.87
2023-01-12T01:47:33.955Z,7.53
2023-01-12T01:50:04.336Z,6.73
2023-01-12T01:52:34.663Z,8.40
2023-01-12T01:55:05.243Z,7.00
2023-01-12T01:57:35.217Z,6.90
2023-01-12T02:00:07.926Z,7.40
2023-01-12T02:02:36.687Z,7.90
2023-01-12T02:05:05.358Z,7.50
2023-01-12T02:07:34.617Z,7.83
2023-01-12T02:10:03.782Z,8.77
2023-01-12T02:12:49.565Z,8.43
2023-01-12T02:15:37.191Z,8.80
2023-01-12T02:18:11.357Z,10.93
2023-01-12T02:20:48.587Z,10.90
2023-01-12T02:23:26.828Z,10.33
2023-01-12T02:26:19.022Z,9.33
2023-01-12T02:29:03.606Z,10.17
2023-01-12T02:31:44.459Z,9.13
2023-01-12T02:34:21.839Z,11.27
2023-01-12T02:36:54.989Z,10.43
2023-01-12T02:39:26.451Z,8.83
2023-01-12T02:42:15.953Z,8.07
2023-01-12T02:44:50.316Z,8.27
2023-01-12T02:47:27.152Z,8.70
2023-01-12T02:49:58.073Z,6.70
2023-01-12T02:52:27.722Z,5.50
2023-01-12T02:54:57.122Z,5.73
2023-01-12T02:57:26.587Z,4.27
2023-01-12T02:59:56.009Z,4.50
2023-01-12T03:02:27.740Z,3.97
2023-01-12T03:04:56.355Z,4.07
2023-01-12T03:07:39.655Z,4.47
2023-01-12T03:10:15.347Z,4.00
2023-01-12T03:12:45.703Z,4.77
2023-01-12T03:15:15.633Z,4.47
2023-01-12T03:17:47.586Z,5.73
2023-01-12T03:20:18.401Z,6.47
2023-01-12T03:22:47.264Z,4.97
2023-01-12T03:25:17.348Z,5.30
2023-01-12T03:27:48.082Z,5.10
2023-01-12T03:30:18.414Z,4.63
2023-01-12T03:32:48.297Z,4.57
2023-01-12T03:35:16.894Z,4.63
2023-01-12T03:37:46.743Z,5.23
2023-01-12T03:40:16.986Z,4.77
2023-01-12T03:42:48.337Z,5.23
2023-01-12T03:45:22.663Z,6.57
2023-01-12T03:47:55.701Z,6.70
2023-01-12T03:50:27.343Z,7.87
2023-01-12T03:52:56.555Z,7.80
2023-01-12T03:55:25.722Z,5.67
2023-01-12T03:57:54.527Z,5.00
2023-01-12T04:00:23.600Z,4.53
2023-01-12T04:03:03.796Z,3.93
2023-01-12T04:05:32.327Z,3.43
2023-01-12T04:08:00.713Z,3.77
2023-01-12T04:10:29.234Z,3.57
2023-01-12T04:12:57.665Z,3.60
2023-01-12T04:15:26.175Z,3.20
2023-01-12T04:17:56.138Z,2.73
2023-01-12T04:20:24.961Z,3.67
2023-01-12T04:22:52.426Z,4.73
2023-01-12T04:25:21.733Z,4.97
2023-01-12T04:27:51.121Z,3.27
2023-01-12T04:30:22.902Z,3.70
2023-01-12T04:32:51.467Z,4.17
2023-01-12T04:35:21.555Z,3.60
2023-01-12T04:37:50.165Z,3.57
2023-01-12T04:40:19.278Z,3.40
2023-01-12T04:43:07.471Z,3.90
2023-01-12T04:45:37.470Z,4.30
2023-01-12T04:48:06.917Z,4.33
2023-01-12T04:50:37.099Z,3.63
2023-01-12T04:53:05.631Z,4.33
2023-01-12T04:55:34.251Z,4.33
2023-01-12T04:58:02.691Z,4.00
2023-01-12T05:00:31.108Z,4.63
2023-01-12T05:03:02.381Z,5.13
2023-01-12T05:05:32.038Z,4.60
2023-01-12T05:08:20.121Z,4.40
2023-01-12T05:10:51.384Z,4.67
2023-01-12T05:13:19.827Z,3.33
2023-01-12T05:15:48.209Z,2.90
2023-01-12T05:18:16.917Z,2.73
2023-01-12T05:20:45.350Z,4.43
2023-01-12T05:23:15.255Z,3.10
2023-01-12T05:25:43.668Z,3.13
2023-01-12T05:28:12.117Z,2.50
2023-01-12T05:30:40.598Z,2.90
2023-01-12T05:33:09.084Z,2.70
2023-01-12T05:35:39.915Z,3.00
2023-01-12T05:38:08.348Z,3.60
2023-01-12T05:40:38.163Z,2.87
2023-01-12T05:43:29.489Z,2.30
2023-01-12T05:45:58.013Z,2.20
2023-01-12T05:48:26.439Z,2.50
2023-01-12T05:50:54.939Z,3.07
2023-01-12T05:53:23.417Z,2.73
2023-01-12T05:55:53.218Z,3.30
2023-01-12T05:58:21.584Z,3.50
2023-01-12T06:00:50.145Z,3.33
2023-01-12T06:03:18.814Z,3.23
2023-01-12T06:05:53.905Z,3.50
2023-01-12T06:08:22.536Z,4.03
2023-01-12T06:10:50.991Z,5.97
2023-01-12T06:13:38.550Z,6.57
2023-01-12T06:16:09.397Z,7.40
2023-01-12T06:18:38.292Z,7.93
2023-01-12T06:21:07.348Z,7.40
2023-01-12T06:23:36.093Z,7.37
2023-01-12T06:26:05.221Z,7.37
2023-01-12T06:28:35.280Z,7.73
2023-01-12T06:31:05.472Z,7.20
2023-01-12T06:33:34.299Z,6.60
2023-01-12T06:36:03.078Z,6.23
2023-01-12T06:38:32.761Z,6.70
2023-01-12T06:41:03.628Z,6.23
2023-01-12T06:43:32.102Z,5.77
2023-01-12T06:46:02.031Z,6.73
2023-01-12T06:48:38.848Z,7.07
2023-01-12T06:51:08.969Z,8.43
2023-01-12T06:53:37.484Z,9.40
2023-01-12T06:56:06.283Z,8.23
2023-01-12T06:58:34.723Z,6.77
2023-01-12T07:01:05.076Z,6.90
2023-01-12T07:03:33.479Z,6.47
2023-01-12T07:06:01.969Z,7.63
2023-01-12T07:08:30.539Z,8.90
2023-01-12T07:11:02.122Z,20.33
2023-01-12T07:13:30.691Z,11.20
2023-01-12T07:16:00.253Z,8.07
2023-01-12T07:18:30.369Z,8.40
2023-01-12T07:20:59.158Z,7.43
2023-01-12T07:23:27.607Z,6.57
2023-01-12T07:25:58.473Z,5.77
2023-01-12T07:28:26.981Z,5.30
2023-01-12T07:31:00.681Z,5.03
2023-01-12T07:33:31.077Z,5.10
2023-01-12T07:36:00.267Z,6.37
2023-01-12T07:38:28.790Z,7.77
2023-01-12T07:41:00.242Z,7.63
2023-01-12T07:43:28.951Z,9.10
2023-01-12T07:45:58.248Z,7.37
2023-01-12T07:48:27.605Z,6.93
2023-01-12T07:51:00.572Z,5.83
2023-01-12T07:53:29.087Z,6.63
2023-01-12T07:56:00.607Z,7.17
2023-01-12T07:58:30.688Z,6.57
2023-01-12T08:01:00.352Z,6.53
2023-01-12T08:03:28.857Z,6.63
2023-01-12T08:05:58.732Z,6.37
2023-01-12T08:08:27.163Z,6.23
2023-01-12T08:10:55.581Z,10.43
2023-01-12T08:13:25.669Z,11.57
2023-01-12T08:15:54.723Z,10.23
2023-01-12T08:18:25.679Z,8.37
2023-01-12T08:20:55.608Z,8.70
2023-01-12T08:23:27.639Z,9.03
2023-01-12T08:25:59.244Z,10.77
2023-01-12T08:28:29.399Z,9.00
2023-01-12T08:30:57.878Z,13.63
2023-01-12T08:33:27.759Z,10.37
2023-01-12T08:35:56.541Z,8.67
2023-01-12T08:38:26.453Z,7.43
2023-01-12T08:41:12.213Z,5.80
2023-01-12T08:43:58.171Z,6.67
2023-01-12T08:46:26.681Z,6.23
2023-01-12T08:48:55.170Z,5.27
2023-01-12T08:51:23.664Z,3.57
2023-01-12T08:53:53.532Z,2.60
2023-01-12T08:56:22.095Z,2.10
2023-01-12T08:58:50.864Z,2.40
2023-01-12T09:01:20.233Z,2.50
2023-01-12T09:03:49.282Z,2.40
2023-01-12T09:06:19.823Z,2.70
2023-01-12T09:08:48.355Z,2.90
2023-01-12T09:11:18.308Z,3.47
2023-01-12T09:13:46.791Z,3.60
2023-01-12T09:16:16.286Z,3.93
2023-01-12T09:18:44.952Z,4.20
2023-01-12T09:21:14.348Z,4.73
2023-01-12T09:23:43.145Z,5.30
2023-01-12T09:26:12.403Z,4.80
2023-01-12T09:28:43.075Z,5.10
2023-01-12T09:31:12.613Z,5.17
2023-01-12T09:33:41.836Z,5.83
2023-01-12T09:36:11.533Z,5.20
2023-01-12T09:38:40.248Z,7.03
2023-01-12T09:41:11.667Z,6.77
2023-01-12T09:43:59.114Z,5.60
2023-01-12T09:46:49.280Z,4.93
2023-01-12T09:49:18.839Z,5.37
2023-01-12T09:51:51.521Z,3.83
2023-01-12T09:54:20.843Z,4.57
2023-01-12T09:56:52.522Z,4.27
2023-01-12T09:59:27.770Z,4.57
2023-01-12T10:01:57.907Z,5.03
2023-01-12T10:04:26.758Z,5.63
2023-01-12T10:06:55.337Z,6.57
2023-01-12T10:09:24.542Z,6.50
2023-01-12T10:11:56.808Z,7.47
2023-01-12T10:14:46.481Z,6.70
2023-01-12T10:17:27.695Z,7.47
2023-01-12T10:19:59.725Z,10.47
2023-01-12T10:22:39.504Z,6.07
2023-01-12T10:25:15.390Z,6.30
2023-01-12T10:27:44.652Z,14.43
2023-01-12T10:30:14.706Z,7.23
2023-01-12T10:32:44.733Z,7.17
2023-01-12T10:35:17.253Z,7.80
2023-01-12T10:37:46.890Z,7.23
2023-01-12T10:40:23.531Z,7.10
2023-01-12T10:43:15.777Z,7.73
2023-01-12T10:46:03.696Z,7.87
2023-01-12T10:48:34.044Z,8.37
2023-01-12T10:51:03.454Z,7.93
2023-01-12T10:53:36.652Z,7.70
2023-01-12T10:56:13.911Z,9.97
2023-01-12T10:58:44.709Z,8.73
2023-01-12T11:01:16.037Z,9.80
2023-01-12T11:03:46.089Z,10.67
2023-01-12T11:06:23.785Z,7.90
2023-01-12T11:08:52.440Z,6.87
2023-01-12T11:11:31.261Z,8.10
2023-01-12T11:14:00.520Z,7.27
2023-01-12T11:16:32.823Z,6.33
2023-01-12T11:19:17.459Z,6.67
2023-01-12T11:21:48.078Z,6.13
2023-01-12T11:24:19.200Z,6.53
2023-01-12T11:26:50.083Z,6.67
2023-01-12T11:29:31.050Z,7.07
2023-01-12T11:32:01.113Z,7.83
2023-01-12T11:34:34.712Z,8.20
2023-01-12T11:37:07.760Z,8.17
2023-01-12T11:39:37.587Z,8.07
2023-01-12T11:42:28.571Z,8.43
2023-01-12T11:44:59.115Z,8.83
2023-01-12T11:47:30.688Z,8.53
2023-01-12T11:50:04.149Z,8.30
2023-01-12T11:52:33.025Z,8.07
2023-01-12T11:55:02.791Z,8.10
2023-01-12T11:57:37.877Z,7.90
2023-01-12T12:00:15.853Z,8.63
2023-01-12T12:02:48.937Z,8.70
2023-01-12T12:05:23.806Z,8.43
2023-01-12T12:08:00.399Z,8.30
2023-01-12T12:10:33.389Z,8.60
2023-01-12T12:13:19.542Z,9.43
2023-01-12T12:15:53.807Z,8.80
2023-01-12T12:18:29.476Z,9.53
2023-01-12T12:21:03.859Z,8.77
2023-01-12T12:23:40.189Z,9.10
2023-01-12T12:26:14.435Z,9.23
2023-01-12T12:28:50.323Z,8.73
2023-01-12T12:31:24.893Z,10.17
2023-01-12T12:34:09.921Z,10.43
2023-01-12T12:36:45.002Z,9.90
2023-01-12T12:39:24.260Z,10.13
2023-01-12T12:42:14.778Z,9.87
2023-01-12T12:45:07.256Z,11.30
2023-01-12T12:47:42.335Z,11.70
2023-01-12T12:50:15.010Z,12.17
2023-01-12T12:52:46.032Z,11.63
2023-01-12T12:55:15.014Z,10.67
2023-01-12T12:58:02.908Z,11.47
2023-01-12T13:00:32.702Z,11.03
2023-01-12T13:03:01.203Z,11.50
2023-01-12T13:05:41.421Z,12.40
2023-01-12T13:08:19.264Z,11.90
2023-01-12T13:10:52.799Z,12.03
2023-01-12T13:13:32.095Z,12.70
2023-01-12T13:16:19.220Z,12.00
2023-01-12T13:19:02.655Z,11.13
2023-01-12T13:21:32.111Z,10.77
2023-01-12T13:24:23.694Z,10.33
2023-01-12T13:26:55.255Z,12.13
2023-01-12T13:29:44.333Z,11.77
2023-01-12T13:32:31.307Z,11.83
2023-01-12T13:34:59.807Z,11.37
2023-01-12T13:37:31.995Z,12.37
2023-01-12T13:40:05.341Z,12.63
2023-01-12T13:42:52.635Z,11.80
2023-01-12T13:45:22.691Z,11.47
2023-01-12T13:47:53.434Z,11.80
2023-01-12T13:50:22.984Z,13.70
2023-01-12T13:52:58.411Z,12.43
2023-01-12T13:55:28.465Z,12.50
2023-01-12T13:57:59.303Z,13.20
2023-01-12T14:00:28.088Z,11.93
2023-01-12T14:02:56.624Z,12.07
2023-01-12T14:05:31.142Z,12.40
2023-01-12T14:08:03.538Z,11.77
2023-01-12T14:10:36.729Z,12.33
2023-01-12T14:13:23.383Z,11.73
2023-01-12T14:16:09.232Z,11.80
2023-01-12T14:18:44.325Z,11.30
2023-01-12T14:21:22.517Z,12.00
2023-01-12T14:23:51.101Z,11.73
2023-01-12T14:26:23.854Z,11.43
2023-01-12T14:28:54.438Z,12.43
2023-01-12T14:31:26.591Z,11.90
2023-01-12T14:33:56.524Z,12.40
2023-01-12T14:36:26.626Z,11.47
2023-01-12T14:38:55.485Z,11.53
2023-01-12T14:41:42.572Z,12.03
2023-01-12T14:44:36.604Z,11.60
2023-01-12T14:47:05.358Z,12.23
2023-01-12T14:49:34.642Z,12.17
2023-01-12T14:52:21.982Z,12.60
2023-01-12T14:54:50.455Z,12.23
2023-01-12T14:57:21.621Z,12.43
2023-01-12T14:59:51.702Z,12.10
2023-01-12T15:02:27.742Z,12.20
2023-01-12T15:04:58.094Z,19.13
2023-01-12T15:07:28.352Z,14.40
2023-01-12T15:09:58.522Z,13.60
2023-01-12T15:12:28.039Z,13.77
2023-01-12T15:15:10.439Z,12.80
2023-01-12T15:17:56.261Z,13.73
2023-01-12T15:20:53.952Z,12.70
2023-01-12T15:23:43.768Z,13.63
2023-01-12T15:26:12.268Z,13.33
2023-01-12T15:28:41.934Z,13.83
2023-01-12T15:31:17.300Z,12.73
2023-01-12T15:33:45.943Z,12.07
2023-01-12T15:36:15.464Z,13.00
2023-01-12T15:38:43.959Z,13.30
2023-01-12T15:41:16.102Z,10.87
2023-01-12T15:43:44.713Z,14.93
2023-01-12T15:46:19.266Z,13.40
2023-01-12T15:48:47.741Z,13.77
2023-01-12T15:51:16.985Z,12.83
2023-01-12T15:53:45.614Z,11.80
2023-01-12T15:56:16.375Z,13.20
2023-01-12T15:58:44.991Z,11.40
2023-01-12T16:01:18.067Z,13.00
2023-01-12T16:04:12.319Z,13.80
2023-01-12T16:06:37.451Z,13.40
2023-01-12T16:09:05.934Z,14.57
2023-01-12T16:11:34.348Z,13.47
2023-01-12T16:14:02.739Z,13.17
2023-01-12T16:16:32.604Z,13.23
2023-01-12T16:19:01.262Z,13.47
2023-01-12T16:21:30.008Z,12.57
2023-01-12T16:23:58.415Z,14.77
2023-01-12T16:26:27.100Z,16.10
2023-01-12T16:28:55.832Z,16.47
2023-01-12T16:31:24.346Z,18.27
2023-01-12T16:33:54.348Z,19.13
2023-01-12T16:36:22.834Z,19.20
2023-01-12T16:38:52.870Z,20.87
2023-01-12T16:41:22.416Z,20.80
2023-01-12T16:43:51.174Z,21.63
2023-01-12T16:46:19.724Z,19.70
2023-01-12T16:48:48.243Z,19.60
2023-01-12T16:51:19.253Z,20.50
2023-01-12T16:53:48.421Z,23.67
2023-01-12T16:56:17.956Z,22.80
2023-01-12T16:58:48.768Z,20.87
2023-01-12T17:01:18.419Z,21.40
2023-01-12T17:03:47.127Z,21.87
2023-01-12T17:06:16.248Z,19.37
2023-01-12T17:08:46.596Z,20.37
2023-01-12T17:11:19.250Z,22.67
2023-01-12T17:13:52.319Z,21.97
2023-01-12T17:16:21.261Z,26.60
2023-01-12T17:18:50.993Z,33.27
2023-01-12T17:21:20.448Z,32.53
2023-01-12T17:23:50.497Z,34.80
2023-01-12T17:26:19.930Z,33.67
2023-01-12T17:28:48.989Z,26.83
2023-01-12T17:31:18.288Z,24.53
2023-01-12T17:33:46.912Z,26.07
2023-01-12T17:36:15.440Z,25.50
2023-01-12T17:38:43.959Z,25.27
2023-01-12T17:41:35.211Z,26.43
2023-01-12T17:44:03.743Z,25.40
2023-01-12T17:46:32.442Z,25.97
2023-01-12T17:49:01.447Z,28.57
2023-01-12T17:51:29.919Z,28.47
2023-01-12T17:53:58.740Z,34.57
2023-01-12T17:56:30.704Z,32.73
2023-01-12T17:58:59.475Z,28.47
2023-01-12T18:01:29.589Z,29.50
2023-01-12T18:03:58.355Z,26.93
2023-01-12T18:06:27.453Z,26.47
2023-01-12T18:08:57.258Z,29.03
2023-01-12T18:11:25.997Z,27.07
2023-01-12T18:13:56.062Z,24.33
2023-01-12T18:16:24.559Z,22.27
2023-01-12T18:18:53.759Z,21.77
2023-01-12T18:21:23.750Z,21.70
2023-01-12T18:23:52.700Z,18.00
2023-01-12T18:26:22.032Z,18.00
2023-01-12T18:28:50.495Z,18.07
2023-01-12T18:31:21.333Z,19.47
2023-01-12T18:33:49.857Z,18.83
2023-01-12T18:36:21.031Z,20.67
2023-01-12T18:38:50.953Z,21.00
2023-01-12T18:41:37.093Z,34.47
2023-01-12T18:44:05.866Z,21.03
2023-01-12T18:46:53.587Z,43.53
2023-01-12T18:49:22.492Z,21.20
2023-01-12T18:52:08.888Z,17.00
2023-01-12T18:54:37.776Z,12.73
2023-01-12T18:57:06.204Z,16.20
2023-01-12T18:59:34.701Z,13.43
2023-01-12T19:02:04.554Z,18.23
2023-01-12T19:04:53.841Z,17.33
2023-01-12T19:07:30.548Z,13.27
2023-01-12T19:09:59.244Z,12.60
2023-01-12T19:12:30.737Z,22.37
2023-01-12T19:15:16.802Z,17.63
2023-01-12T19:17:46.678Z,20.03
2023-01-12T19:20:16.059Z,27.73
2023-01-12T19:23:02.214Z,23.10
2023-01-12T19:25:48.204Z,19.00
2023-01-12T19:28:40.670Z,16.80
2023-01-12T19:31:11.046Z,9.23
2023-01-12T19:33:42.665Z,8.57
2023-01-12T19:36:14.151Z,11.67
2023-01-12T19:38:44.393Z,14.17
2023-01-12T19:41:32.855Z,12.53
2023-01-12T19:44:01.426Z,8.33
2023-01-12T19:46:29.962Z,9.07
2023-01-12T19:48:59.828Z,10.50
2023-01-12T19:51:28.348Z,12.13
2023-01-12T19:53:56.820Z,10.20
2023-01-12T19:56:25.312Z,8.67
2023-01-12T19:58:54.243Z,9.03
2023-01-12T20:01:23.076Z,10.80
2023-01-12T20:03:52.044Z,17.27
2023-01-12T20:06:21.836Z,12.93
2023-01-12T20:08:50.244Z,13.43
2023-01-12T20:11:18.800Z,14.10
2023-01-12T20:13:47.311Z,14.23
2023-01-12T20:16:15.768Z,12.23
2023-01-12T20:18:44.604Z,11.90
2023-01-12T20:21:13.670Z,10.20
2023-01-12T20:23:43.590Z,13.57
2023-01-12T20:26:13.326Z,13.27
2023-01-12T20:28:41.935Z,10.57
2023-01-12T20:31:11.092Z,9.47
2023-01-12T20:33:39.530Z,9.10
2023-01-12T20:36:11.290Z,9.57
2023-01-12T20:38:40.794Z,10.50
2023-01-12T20:41:11.098Z,11.17
2023-01-12T20:43:39.515Z,12.97
2023-01-12T20:46:09.210Z,14.93
2023-01-12T20:48:37.861Z,13.37
2023-01-12T20:51:08.547Z,12.13
2023-01-12T20:53:37.112Z,12.37
2023-01-12T20:56:06.102Z,10.40
2023-01-12T20:58:35.961Z,11.10
2023-01-12T21:01:04.430Z,10.43
2023-01-12T21:03:32.987Z,11.63
2023-01-12T21:06:01.486Z,13.40
2023-01-12T21:08:29.929Z,14.20
2023-01-12T21:11:00.558Z,14.73
2023-01-12T21:13:28.948Z,15.07
2023-01-12T21:16:02.792Z,14.87
2023-01-12T21:18:31.945Z,18.00
2023-01-12T21:21:00.374Z,17.13
2023-01-12T21:23:29.380Z,17.13
2023-01-12T21:25:59.160Z,18.47
2023-01-12T21:28:30.321Z,17.30
2023-01-12T21:31:03.112Z,16.30
2023-01-12T21:33:32.049Z,16.93
2023-01-12T21:36:00.878Z,17.30
2023-01-12T21:38:29.667Z,19.70
2023-01-12T21:41:02.383Z,17.87
2023-01-12T21:43:30.938Z,18.67
2023-01-12T21:46:05.431Z,22.17
2023-01-12T21:48:35.377Z,23.77
2023-01-12T21:51:04.193Z,18.53
2023-01-12T21:53:32.896Z,16.17
2023-01-12T21:56:02.238Z,15.27
2023-01-12T21:58:31.543Z,16.00
2023-01-12T22:01:01.319Z,19.43
2023-01-12T22:03:30.255Z,19.53
2023-01-12T22:06:05.457Z,18.77
2023-01-12T22:08:34.892Z,18.07
2023-01-12T22:11:07.113Z,14.83
2023-01-12T22:13:35.954Z,13.17
2023-01-12T22:16:05.423Z,10.63
2023-01-12T22:18:34.711Z,9.13
2023-01-12T22:21:05.572Z,8.13
2023-01-12T22:23:34.268Z,7.63
2023-01-12T22:26:03.442Z,7.90
2023-01-12T22:28:33.689Z,7.43
2023-01-12T22:31:07.823Z,7.80
2023-01-12T22:33:36.348Z,7.60
2023-01-12T22:36:06.895Z,7.70
2023-01-12T22:38:35.493Z,7.03
2023-01-12T22:41:07.717Z,7.77
2023-01-12T22:43:40.762Z,7.50
2023-01-12T22:46:15.758Z,6.83
2023-01-12T22:48:44.628Z,7.13
2023-01-12T22:51:14.521Z,6.80
2023-01-12T22:53:43.734Z,6.80
2023-01-12T22:56:12.601Z,7.53
2023-01-12T22:58:41.385Z,7.33
2023-01-12T23:01:10.565Z,8.50
2023-01-12T23:03:39.299Z,9.17
2023-01-12T23:06:08.158Z,10.03
2023-01-12T23:08:38.008Z,9.23
2023-01-12T23:11:07.222Z,8.23
2023-01-12T23:13:35.938Z,8.03
2023-01-12T23:16:06.336Z,7.03
2023-01-12T23:18:36.243Z,7.50
2023-01-12T23:21:09.969Z,7.63
2023-01-12T23:23:40.333Z,7.13
2023-01-12T23:26:10.045Z,6.60
2023-01-12T23:28:41.098Z,6.10
2023-01-12T23:31:10.940Z,4.87
2023-01-12T23:33:40.074Z,4.20
2023-01-12T23:36:09.935Z,4.63
2023-01-12T23:38:39.797Z,4.33
2023-01-12T23:41:12.083Z,4.50
2023-01-12T23:43:40.642Z,4.27
2023-01-12T23:46:09.196Z,5.07
2023-01-12T23:48:37.765Z,4.80
2023-01-12T23:51:06.936Z,5.50
2023-01-12T23:53:35.690Z,4.63
2023-01-12T23:56:09.811Z,4.70
2023-01-12T23:58:38.500Z,3.67
